createdAt,value
2022-07-27T00:01:14.384Z,71.27
2022-07-27T00:03:42.973Z,72.05
2022-07-27T00:06:11.166Z,72.21
2022-07-27T00:08:38.969Z,71.88
2022-07-27T00:11:08.617Z,71.11
2022-07-27T00:13:36.636Z,72.24
2022-07-27T00:16:05.115Z,72.03
2022-07-27T00:18:33.202Z,72.09
2022-07-27T00:21:01.075Z,72.25
2022-07-27T00:23:28.845Z,71.80
2022-07-27T00:25:57.562Z,72.12
2022-07-27T00:28:25.296Z,72.45
2022-07-27T00:30:53.167Z,72.90
2022-07-27T00:33:21.352Z,72.24
2022-07-27T00:35:49.397Z,72.22
2022-07-27T00:38:17.118Z,72.94
2022-07-27T00:40:45.256Z,72.71
2022-07-27T00:43:13.278Z,72.83
2022-07-27T00:45:41.843Z,72.90
2022-07-27T00:48:09.834Z,72.76
2022-07-27T00:50:38.802Z,73.19
2022-07-27T00:53:08.775Z,73.01
2022-07-27T00:55:37.164Z,73.05
2022-07-27T00:58:08.684Z,73.00
2022-07-27T01:00:37.763Z,73.33
2022-07-27T01:03:08.676Z,73.10
2022-07-27T01:05:42.925Z,73.12
2022-07-27T01:08:14.074Z,73.09
2022-07-27T01:10:43.636Z,73.23
2022-07-27T01:13:12.482Z,73.27
2022-07-27T01:15:42.498Z,73.22
2022-07-27T01:18:27.525Z,73.28
2022-07-27T01:20:56.075Z,73.27
2022-07-27T01:23:25.553Z,73.31
2022-07-27T01:25:54.144Z,73.23
2022-07-27T01:28:22.088Z,73.35
2022-07-27T01:30:50.659Z,73.11
2022-07-27T01:33:18.640Z,73.05
2022-07-27T01:35:46.506Z,72.93
2022-07-27T01:38:14.275Z,72.70
2022-07-27T01:40:42.228Z,72.69
2022-07-27T01:43:10.022Z,72.54
2022-07-27T01:45:40.037Z,72.60
2022-07-27T01:48:07.807Z,72.29
2022-07-27T01:50:35.625Z,72.25
2022-07-27T01:53:03.746Z,72.05
2022-07-27T01:55:38.654Z,71.82
2022-07-27T01:58:07.987Z,71.70
2022-07-27T02:00:37.429Z,71.79
2022-07-27T02:03:06.343Z,71.70
2022-07-27T02:05:34.807Z,71.75
2022-07-27T02:08:03.912Z,71.82
2022-07-27T02:10:32.330Z,71.90
2022-07-27T02:13:00.285Z,71.83
2022-07-27T02:15:42.838Z,71.80
2022-07-27T02:18:33.218Z,71.70
2022-07-27T02:20:59.076Z,71.58
2022-07-27T02:23:26.965Z,71.64
2022-07-27T02:25:54.781Z,71.42
2022-07-27T02:28:23.331Z,71.40
2022-07-27T02:30:51.162Z,71.43
2022-07-27T02:33:19.105Z,71.48
2022-07-27T02:35:47.382Z,71.40
2022-07-27T02:38:15.306Z,71.41
2022-07-27T02:40:43.268Z,71.35
2022-07-27T02:43:13.053Z,71.23
2022-07-27T02:45:41.088Z,71.19
2022-07-27T02:48:08.872Z,71.19
2022-07-27T02:50:36.707Z,71.20
2022-07-27T02:53:04.472Z,71.27
2022-07-27T02:55:32.245Z,71.19
2022-07-27T02:58:00.111Z,71.21
2022-07-27T03:00:28.049Z,71.43
2022-07-27T03:02:55.904Z,71.39
2022-07-27T03:05:24.178Z,71.50
2022-07-27T03:07:51.929Z,71.40
2022-07-27T03:10:19.809Z,71.46
2022-07-27T03:12:47.764Z,71.41
2022-07-27T03:15:15.935Z,71.42
2022-07-27T03:17:43.810Z,71.27
2022-07-27T03:20:15.263Z,71.08
2022-07-27T03:22:43.939Z,70.94
2022-07-27T03:25:11.792Z,70.65
2022-07-27T03:27:39.586Z,70.58
2022-07-27T03:30:08.492Z,70.32
2022-07-27T03:32:36.343Z,70.10
2022-07-27T03:35:04.735Z,70.06
2022-07-27T03:37:32.975Z,70.23
2022-07-27T03:40:00.780Z,70.17
2022-07-27T03:42:28.901Z,70.07
2022-07-27T03:44:56.688Z,70.00
2022-07-27T03:47:25.053Z,70.02
2022-07-27T03:49:53.332Z,69.97
2022-07-27T03:52:21.532Z,69.85
2022-07-27T03:54:49.540Z,69.80
2022-07-27T03:57:17.336Z,69.72
2022-07-27T03:59:45.648Z,69.69
2022-07-27T04:02:13.624Z,69.72
2022-07-27T04:04:41.685Z,69.79
2022-07-27T04:07:10.449Z,69.78
2022-07-27T04:09:39.528Z,69.72
2022-07-27T04:12:09.629Z,69.51
2022-07-27T04:14:37.743Z,69.37
2022-07-27T04:17:05.586Z,69.35
2022-07-27T04:19:34.411Z,69.45
2022-07-27T04:22:02.365Z,69.35
2022-07-27T04:24:30.298Z,69.38
2022-07-27T04:26:58.360Z,69.22
2022-07-27T04:29:26.170Z,68.83
2022-07-27T04:31:54.210Z,68.48
2022-07-27T04:34:22.070Z,68.30
2022-07-27T04:36:50.849Z,68.17
2022-07-27T04:39:18.634Z,67.72
2022-07-27T04:41:47.378Z,67.38
2022-07-27T04:44:15.219Z,66.99
2022-07-27T04:46:43.206Z,66.61
2022-07-27T04:49:11.330Z,66.43
2022-07-27T04:51:43.075Z,66.00
2022-07-27T04:54:12.090Z,65.67
2022-07-27T04:56:40.033Z,66.00
2022-07-27T04:59:07.924Z,65.83
2022-07-27T05:01:35.859Z,65.87
2022-07-27T05:04:05.283Z,65.88
2022-07-27T05:06:33.257Z,65.73
2022-07-27T05:09:01.685Z,66.00
2022-07-27T05:11:29.646Z,65.35
2022-07-27T05:13:57.779Z,64.34
2022-07-27T05:16:28.836Z,64.59
2022-07-27T05:18:57.492Z,64.55
2022-07-27T05:21:26.171Z,63.92
2022-07-27T05:23:54.197Z,62.67
2022-07-27T05:26:23.173Z,62.84
2022-07-27T05:28:51.199Z,63.19
2022-07-27T05:31:19.254Z,62.41
2022-07-27T05:33:49.260Z,62.57
2022-07-27T05:36:18.420Z,62.08
2022-07-27T05:38:46.267Z,61.88
2022-07-27T05:41:14.533Z,62.15
2022-07-27T05:43:42.297Z,61.33
2022-07-27T05:46:10.938Z,60.03
2022-07-27T05:48:38.979Z,61.26
2022-07-27T05:51:06.854Z,62.29
2022-07-27T05:53:35.387Z,62.04
2022-07-27T05:56:03.296Z,61.24
2022-07-27T05:58:31.355Z,59.50
2022-07-27T06:00:59.662Z,59.69
2022-07-27T06:03:28.018Z,60.17
2022-07-27T06:06:15.846Z,61.38
2022-07-27T06:08:45.245Z,62.19
2022-07-27T06:11:13.914Z,60.88
2022-07-27T06:13:41.998Z,59.35
2022-07-27T06:16:10.811Z,59.07
2022-07-27T06:18:39.268Z,60.81
2022-07-27T06:21:07.576Z,60.55
2022-07-27T06:23:35.487Z,61.10
2022-07-27T06:26:05.126Z,60.61
2022-07-27T06:28:33.094Z,60.64
2022-07-27T06:31:01.242Z,59.71
2022-07-27T06:33:30.885Z,59.73
2022-07-27T06:36:00.003Z,59.66
2022-07-27T06:38:29.887Z,59.78
2022-07-27T06:40:58.469Z,59.55
2022-07-27T06:43:28.555Z,59.05
2022-07-27T06:45:58.247Z,57.10
2022-07-27T06:48:26.664Z,57.29
2022-07-27T06:50:54.708Z,57.55
2022-07-27T06:53:22.816Z,58.51
2022-07-27T06:55:50.747Z,57.49
2022-07-27T06:58:19.242Z,56.15
2022-07-27T07:00:47.863Z,55.68
2022-07-27T07:03:16.018Z,55.68
2022-07-27T07:05:46.590Z,54.22
2022-07-27T07:08:15.064Z,55.20
2022-07-27T07:10:45.475Z,55.21
2022-07-27T07:13:13.461Z,55.46
2022-07-27T07:15:42.973Z,54.98
2022-07-27T07:18:11.907Z,54.92
2022-07-27T07:20:40.308Z,54.49
2022-07-27T07:23:08.727Z,54.17
2022-07-27T07:25:37.409Z,53.67
2022-07-27T07:28:07.315Z,53.58
2022-07-27T07:30:37.687Z,53.47
2022-07-27T07:33:05.604Z,53.70
2022-07-27T07:35:34.054Z,53.49
2022-07-27T07:38:02.159Z,52.85
2022-07-27T07:40:46.745Z,52.93
2022-07-27T07:43:14.875Z,54.23
2022-07-27T07:45:51.401Z,53.13
2022-07-27T07:48:23.619Z,52.81
2022-07-27T07:50:53.927Z,50.97
2022-07-27T07:53:23.408Z,53.27
2022-07-27T07:55:52.632Z,52.42
2022-07-27T07:58:20.567Z,52.28
2022-07-27T08:00:49.060Z,51.70
2022-07-27T08:03:17.420Z,51.11
2022-07-27T08:05:45.324Z,51.05
2022-07-27T08:08:13.564Z,50.49
2022-07-27T08:10:41.450Z,49.49
2022-07-27T08:13:09.419Z,49.82
2022-07-27T08:15:37.988Z,50.93
2022-07-27T08:18:06.280Z,52.40
2022-07-27T08:20:34.631Z,47.46
2022-07-27T08:23:03.370Z,48.91
2022-07-27T08:25:32.066Z,49.60
2022-07-27T08:28:00.347Z,48.78
2022-07-27T08:30:33.076Z,49.32
2022-07-27T08:33:03.397Z,48.11
2022-07-27T08:35:33.631Z,49.14
2022-07-27T08:38:03.344Z,49.29
2022-07-27T08:40:47.598Z,49.20
2022-07-27T08:43:24.832Z,49.83
2022-07-27T08:45:55.377Z,49.66
2022-07-27T08:48:25.758Z,48.71
2022-07-27T08:50:54.679Z,47.95
2022-07-27T08:53:23.384Z,47.58
2022-07-27T08:55:52.554Z,47.57
2022-07-27T08:58:20.421Z,48.76
2022-07-27T09:00:50.282Z,47.43
2022-07-27T09:03:21.471Z,48.04
2022-07-27T09:05:54.925Z,47.56
2022-07-27T09:08:31.077Z,46.12
2022-07-27T09:11:00.368Z,47.49
2022-07-27T09:13:33.452Z,44.46
2022-07-27T09:16:21.199Z,44.22
2022-07-27T09:18:59.031Z,43.26
2022-07-27T09:21:27.013Z,39.56
2022-07-27T09:24:17.809Z,35.71
2022-07-27T09:26:51.261Z,33.80
2022-07-27T09:29:19.547Z,33.02
2022-07-27T09:31:51.857Z,31.96
2022-07-27T09:34:28.710Z,32.95
2022-07-27T09:36:58.294Z,33.07
2022-07-27T09:39:27.850Z,30.94
2022-07-27T09:41:58.386Z,30.47
2022-07-27T09:44:43.878Z,28.45
2022-07-27T09:47:28.044Z,27.21
2022-07-27T09:50:02.525Z,22.30
2022-07-27T09:52:31.003Z,22.97
2022-07-27T09:55:04.097Z,21.75
2022-07-27T09:57:51.312Z,21.43
2022-07-27T10:00:20.230Z,22.46
2022-07-27T10:02:50.258Z,20.43
2022-07-27T10:05:21.543Z,19.71
2022-07-27T10:07:51.280Z,18.78
2022-07-27T10:10:20.044Z,18.05
2022-07-27T10:12:53.983Z,18.57
2022-07-27T10:15:24.949Z,19.68
2022-07-27T10:18:09.214Z,19.81
2022-07-27T10:20:40.218Z,20.35
2022-07-27T10:23:09.277Z,18.54
2022-07-27T10:25:38.255Z,17.69
2022-07-27T10:28:18.173Z,16.71
2022-07-27T10:30:49.449Z,18.04
2022-07-27T10:33:42.924Z,18.78
2022-07-27T10:36:24.260Z,19.32
2022-07-27T10:38:56.673Z,19.57
2022-07-27T10:41:26.215Z,19.86
2022-07-27T10:44:18.649Z,20.48
2022-07-27T10:47:00.656Z,21.92
2022-07-27T10:49:29.687Z,22.86
2022-07-27T10:51:59.306Z,23.59
2022-07-27T10:54:36.578Z,24.75
2022-07-27T10:57:06.283Z,25.41
2022-07-27T11:02:41.061Z,27.39
2022-07-27T11:05:32.853Z,28.24
2022-07-27T11:10:48.619Z,25.83
2022-07-27T11:13:21.538Z,25.06
2022-07-27T11:19:10.987Z,23.85
2022-07-27T11:21:39.183Z,24.11
2022-07-27T11:24:18.820Z,24.81
2022-07-27T11:26:50.450Z,25.87
2022-07-27T11:29:20.539Z,26.92
2022-07-27T11:31:56.457Z,28.15
2022-07-27T11:34:33.796Z,28.93
2022-07-27T11:37:05.523Z,29.15
2022-07-27T11:39:59.374Z,29.63
2022-07-27T11:42:24.000Z,30.40
2022-07-27T11:44:53.401Z,30.80
2022-07-27T11:47:24.141Z,31.63
2022-07-27T11:49:52.497Z,32.64
2022-07-27T11:52:20.619Z,32.99
2022-07-27T11:54:51.680Z,32.79
2022-07-27T11:57:20.968Z,34.41
2022-07-27T11:59:48.896Z,34.48
2022-07-27T12:02:20.488Z,34.98
2022-07-27T12:04:50.533Z,35.07
2022-07-27T12:07:29.142Z,35.78
2022-07-27T12:09:59.055Z,36.78
2022-07-27T12:12:28.665Z,36.76
2022-07-27T12:14:58.980Z,36.64
2022-07-27T12:17:27.239Z,36.83
2022-07-27T12:20:02.773Z,37.17
2022-07-27T12:22:40.483Z,36.68
2022-07-27T12:25:16.202Z,36.23
2022-07-27T12:27:58.105Z,36.02
2022-07-27T12:30:40.254Z,36.47
2022-07-27T12:33:37.812Z,36.99
2022-07-27T12:36:08.009Z,36.55
2022-07-27T12:38:44.457Z,36.87
2022-07-27T12:41:24.927Z,36.64
2022-07-27T12:44:09.842Z,36.90
2022-07-27T12:46:54.074Z,36.90
2022-07-27T12:49:25.617Z,36.60
2022-07-27T12:51:53.639Z,37.35
2022-07-27T12:54:24.641Z,36.27
2022-07-27T12:56:52.419Z,36.21
2022-07-27T12:59:22.147Z,37.11
2022-07-27T13:01:51.431Z,37.29
2022-07-27T13:04:19.410Z,37.21
2022-07-27T13:06:47.628Z,36.33
2022-07-27T13:09:16.252Z,36.25
2022-07-27T13:11:47.886Z,36.92
2022-07-27T13:14:16.314Z,37.16
2022-07-27T13:16:44.326Z,37.33
2022-07-27T13:19:15.530Z,37.58
2022-07-27T13:21:43.851Z,38.62
2022-07-27T13:24:11.707Z,38.82
2022-07-27T13:26:41.037Z,38.64
2022-07-27T13:29:08.896Z,38.92
2022-07-27T13:31:37.264Z,39.04
2022-07-27T13:34:05.322Z,38.71
2022-07-27T13:36:33.101Z,39.78
2022-07-27T13:39:00.976Z,39.32
2022-07-27T13:41:28.763Z,39.37
2022-07-27T13:43:56.503Z,40.01
2022-07-27T13:46:24.683Z,40.15
2022-07-27T13:48:52.697Z,40.12
2022-07-27T13:51:20.521Z,40.01
2022-07-27T13:53:48.769Z,39.76
2022-07-27T13:56:16.720Z,39.64
2022-07-27T13:58:51.643Z,39.98
2022-07-27T14:01:19.933Z,40.45
2022-07-27T14:03:48.473Z,40.10
2022-07-27T14:06:16.501Z,39.66
2022-07-27T14:08:44.654Z,39.54
2022-07-27T14:11:13.126Z,39.83
2022-07-27T14:13:41.162Z,40.42
2022-07-27T14:16:10.251Z,41.03
2022-07-27T14:18:38.625Z,40.77
2022-07-27T14:21:07.850Z,40.05
2022-07-27T14:23:37.458Z,39.65
2022-07-27T14:26:07.747Z,40.06
2022-07-27T14:28:36.565Z,40.10
2022-07-27T14:31:08.604Z,40.59
2022-07-27T14:33:37.316Z,39.12
2022-07-27T14:36:06.822Z,38.31
2022-07-27T14:38:36.967Z,38.50
2022-07-27T14:41:05.699Z,38.82
2022-07-27T14:43:34.086Z,39.29
2022-07-27T14:46:02.008Z,39.30
2022-07-27T14:49:03.166Z,39.37
2022-07-27T14:51:17.655Z,39.17
2022-07-27T14:53:46.243Z,40.01
2022-07-27T14:56:14.087Z,41.14
2022-07-27T14:58:42.331Z,40.78
2022-07-27T15:01:10.302Z,40.79
2022-07-27T15:03:38.510Z,41.41
2022-07-27T15:06:06.352Z,41.72
2022-07-27T15:08:34.749Z,41.86
2022-07-27T15:11:02.689Z,42.11
2022-07-27T15:13:30.864Z,42.23
2022-07-27T15:15:58.820Z,43.46
2022-07-27T15:18:27.144Z,43.11
2022-07-27T15:20:55.278Z,44.04
2022-07-27T15:23:23.972Z,43.37
2022-07-27T15:25:52.418Z,43.70
2022-07-27T15:28:21.598Z,45.29
2022-07-27T15:30:49.758Z,45.76
2022-07-27T15:33:17.502Z,45.72
2022-07-27T15:35:45.715Z,46.94
2022-07-27T15:38:13.477Z,46.31
2022-07-27T15:40:44.210Z,46.24
2022-07-27T15:43:14.662Z,45.98
2022-07-27T15:45:47.849Z,46.65
2022-07-27T15:48:17.998Z,45.57
2022-07-27T15:50:49.028Z,46.30
2022-07-27T15:53:18.809Z,45.56
2022-07-27T15:55:47.670Z,45.31
2022-07-27T15:58:19.389Z,45.09
2022-07-27T16:00:50.003Z,45.13
2022-07-27T16:03:19.002Z,45.78
2022-07-27T16:05:50.008Z,45.77
2022-07-27T16:08:18.873Z,44.75
2022-07-27T16:10:47.962Z,45.60
2022-07-27T16:13:15.927Z,45.26
2022-07-27T16:16:03.098Z,44.69
2022-07-27T16:18:35.325Z,45.07
2022-07-27T16:21:07.259Z,46.23
2022-07-27T16:23:35.361Z,45.83
2022-07-27T16:26:05.794Z,46.15
2022-07-27T16:28:38.846Z,47.19
2022-07-27T16:31:10.658Z,46.07
2022-07-27T16:33:38.824Z,46.85
2022-07-27T16:36:08.582Z,46.64
2022-07-27T16:38:37.897Z,46.54
2022-07-27T16:41:17.449Z,46.54
2022-07-27T16:43:45.256Z,46.68
2022-07-27T16:46:13.531Z,46.99
2022-07-27T16:48:43.379Z,47.62
2022-07-27T16:51:12.974Z,47.48
2022-07-27T16:53:42.358Z,47.41
2022-07-27T16:56:10.987Z,47.56
2022-07-27T16:58:39.387Z,48.30
2022-07-27T17:01:08.054Z,48.45
2022-07-27T17:03:36.700Z,49.91
2022-07-27T17:06:06.808Z,50.20
2022-07-27T17:08:37.082Z,51.17
2022-07-27T17:11:05.445Z,51.15
2022-07-27T17:13:36.845Z,52.99
2022-07-27T17:16:08.389Z,53.26
2022-07-27T17:18:40.140Z,53.50
2022-07-27T17:21:12.626Z,53.38
2022-07-27T17:23:42.159Z,54.51
2022-07-27T17:26:10.558Z,55.80
2022-07-27T17:28:41.679Z,55.91
2022-07-27T17:31:11.440Z,56.60
2022-07-27T17:33:40.598Z,56.14
2022-07-27T17:36:14.545Z,56.50
2022-07-27T17:38:44.451Z,56.29
2022-07-27T17:41:13.213Z,56.47
2022-07-27T17:43:41.807Z,57.72
2022-07-27T17:46:10.994Z,58.12
2022-07-27T17:48:38.973Z,57.77
2022-07-27T17:51:08.320Z,57.04
2022-07-27T17:53:36.097Z,58.39
2022-07-27T17:56:05.022Z,57.28
2022-07-27T17:58:33.226Z,59.51
2022-07-27T18:01:01.061Z,61.42
2022-07-27T18:03:28.881Z,63.03
2022-07-27T18:05:56.837Z,61.23
2022-07-27T18:08:24.660Z,59.08
2022-07-27T18:10:52.583Z,57.23
2022-07-27T18:13:20.513Z,57.58
2022-07-27T18:15:48.940Z,58.03
2022-07-27T18:18:21.291Z,58.84
2022-07-27T18:20:52.316Z,60.86
2022-07-27T18:23:21.835Z,63.15
2022-07-27T18:25:50.237Z,62.52
2022-07-27T18:28:19.038Z,60.60
2022-07-27T18:30:49.086Z,58.56
2022-07-27T18:33:17.521Z,57.21
2022-07-27T18:35:46.501Z,58.03
2022-07-27T18:38:15.158Z,60.93
2022-07-27T18:40:46.198Z,62.53
2022-07-27T18:43:15.020Z,61.67
2022-07-27T18:45:43.257Z,61.77
2022-07-27T18:48:11.087Z,61.24
2022-07-27T18:50:40.304Z,60.87
2022-07-27T18:53:09.144Z,59.92
2022-07-27T18:55:37.807Z,58.60
2022-07-27T18:58:07.065Z,57.69
2022-07-27T19:00:35.080Z,58.55
2022-07-27T19:03:03.562Z,60.81
2022-07-27T19:05:41.402Z,62.27
2022-07-27T19:08:13.187Z,62.08
2022-07-27T19:10:42.959Z,61.69
2022-07-27T19:13:11.688Z,61.39
2022-07-27T19:15:40.095Z,61.31
2022-07-27T19:18:08.381Z,61.29
2022-07-27T19:20:37.809Z,61.44
2022-07-27T19:23:06.505Z,61.42
2022-07-27T19:25:34.891Z,60.31
2022-07-27T19:28:03.784Z,58.42
2022-07-27T19:30:31.712Z,59.03
2022-07-27T19:33:00.226Z,61.23
2022-07-27T19:35:28.324Z,62.91
2022-07-27T19:37:56.214Z,63.34
2022-07-27T19:43:12.606Z,63.04
2022-07-27T19:45:41.216Z,63.07
2022-07-27T19:48:09.236Z,62.87
2022-07-27T19:50:37.436Z,62.80
2022-07-27T19:53:05.391Z,62.84
2022-07-27T19:55:33.692Z,63.00
2022-07-27T19:58:01.846Z,62.80
2022-07-27T20:00:30.205Z,62.77
2022-07-27T20:02:58.122Z,63.14
2022-07-27T20:05:26.086Z,63.04
2022-07-27T20:07:54.018Z,62.67
2022-07-27T20:10:22.042Z,62.54
2022-07-27T20:12:49.876Z,61.98
2022-07-27T20:15:18.423Z,61.88
2022-07-27T20:17:46.760Z,61.69
2022-07-27T20:20:14.637Z,61.21
2022-07-27T20:22:42.973Z,61.74
2022-07-27T20:25:10.975Z,61.95
2022-07-27T20:27:38.995Z,62.08
2022-07-27T20:30:07.868Z,62.20
2022-07-27T20:32:35.723Z,62.28
2022-07-27T20:35:04.205Z,62.23
2022-07-27T20:37:32.795Z,62.18
2022-07-27T20:40:00.930Z,62.26
2022-07-27T20:42:28.874Z,61.91
2022-07-27T20:44:58.937Z,62.22
2022-07-27T20:47:29.848Z,62.31
2022-07-27T20:50:02.139Z,62.11
2022-07-27T20:52:30.191Z,61.90
2022-07-27T20:54:58.036Z,61.65
2022-07-27T20:57:25.943Z,61.65
2022-07-27T20:59:54.607Z,61.75
2022-07-27T21:02:22.543Z,61.58
2022-07-27T21:04:51.979Z,61.62
2022-07-27T21:07:21.480Z,61.91
2022-07-27T21:09:49.678Z,61.64
2022-07-27T21:12:17.598Z,61.88
2022-07-27T21:14:45.392Z,61.74
2022-07-27T21:17:13.587Z,61.72
2022-07-27T21:19:41.431Z,61.50
2022-07-27T21:22:09.210Z,61.65
2022-07-27T21:24:37.002Z,61.94
2022-07-27T21:27:05.062Z,62.50
2022-07-27T21:29:33.306Z,62.20
2022-07-27T21:32:03.440Z,62.55
2022-07-27T21:34:31.356Z,62.60
2022-07-27T21:36:59.463Z,62.57
2022-07-27T21:39:29.096Z,62.16
2022-07-27T21:42:01.843Z,60.25
2022-07-27T21:44:30.508Z,58.07
2022-07-27T21:46:58.724Z,58.19
2022-07-27T21:49:34.538Z,59.41
2022-07-27T21:52:03.766Z,60.99
2022-07-27T21:54:31.639Z,62.48
2022-07-27T21:56:59.487Z,63.18
2022-07-27T21:59:27.231Z,61.79
2022-07-27T22:01:55.040Z,61.50
2022-07-27T22:04:23.210Z,61.72
2022-07-27T22:06:51.288Z,62.05
2022-07-27T22:09:20.305Z,61.92
2022-07-27T22:11:48.359Z,61.15
2022-07-27T22:14:16.899Z,60.85
2022-07-27T22:16:45.081Z,60.58
2022-07-27T22:19:14.213Z,60.53
2022-07-27T22:21:42.123Z,59.83
2022-07-27T22:24:10.313Z,59.72
2022-07-27T22:26:38.512Z,58.20
2022-07-27T22:29:06.860Z,57.74
2022-07-27T22:31:34.673Z,58.42
2022-07-27T22:34:02.675Z,60.85
2022-07-27T22:36:32.639Z,62.54
2022-07-27T22:39:00.517Z,62.69
2022-07-27T22:41:28.663Z,62.33
2022-07-27T22:43:56.489Z,62.28
2022-07-27T22:46:25.955Z,61.35
2022-07-27T22:48:55.660Z,60.44
2022-07-27T22:51:23.853Z,60.03
2022-07-27T22:53:51.685Z,57.61
2022-07-27T22:56:19.761Z,57.47
2022-07-27T22:58:48.070Z,58.66
2022-07-27T23:01:45.485Z,61.04
2022-07-27T23:04:04.127Z,62.87
2022-07-27T23:06:31.927Z,63.28
2022-07-27T23:08:59.675Z,62.47
2022-07-27T23:11:27.661Z,62.17
2022-07-27T23:13:55.591Z,61.88
2022-07-27T23:16:23.489Z,61.61
2022-07-27T23:18:51.754Z,60.82
2022-07-27T23:21:19.684Z,61.01
2022-07-27T23:23:53.562Z,60.65
2022-07-27T23:26:25.698Z,60.26
2022-07-27T23:28:54.052Z,60.07
2022-07-27T23:31:23.386Z,60.03
2022-07-27T23:33:51.567Z,60.10
2022-07-27T23:36:19.421Z,60.49
2022-07-27T23:38:47.770Z,60.40
2022-07-27T23:41:16.750Z,60.36
2022-07-27T23:43:45.007Z,60.09
2022-07-27T23:46:13.114Z,60.50
2022-07-27T23:48:41.174Z,59.46
2022-07-27T23:51:09.315Z,57.42
2022-07-27T23:53:37.101Z,57.98
2022-07-27T23:56:05.305Z,58.78
2022-07-27T23:58:33.145Z,61.62
